Olib — 9AA6266 — position and weather

sailwx.info

Track history (hours):
 
Tides and Currents Weather Stations Pressure Air Temp Water Temp Dewpoint Dewpoint Depression Visibility Wind Speed Wind Dir Waves Ship Positions

Olib

Last reported at 2016-Jul-24 19:32 UTC. Time now 2016-Jul-24 20:31 UTC.
Position N 35°34' E 015°13'.

Length 247 m; draft 8.3 m.

Type: Ship. MMSI: 238252000.

Date/timePositionNaut miles runAvg speedWind from/ knotsBaromVisibWave heightAir tempDewpointWater temp
2016-Jul-24 19:32N 35°34' E 015°13'0 0.4
2016-Jul-24 18:33N 35°35' E 015°13'0 0.5
2016-Jul-24 17:33N 35°35' E 015°13'1 0.5
2016-Jul-24 15:33N 35°36' E 015°12'1 0.5
2016-Jul-24 14:17N 35°37' E 015°12'0 0.4
2016-Jul-24 13:34N 35°37' E 015°11'0 0.2
2016-Jul-24 12:34N 35°37' E 015°11'0 0.2
2016-Jul-24 11:18N 35°37' E 015°11'2 0.5
2016-Jul-24 07:33N 35°38' E 015°10'1 0.6
2016-Jul-24 06:33N 35°39' E 015°09'1 0.8
2016-Jul-24 05:30N 35°39' E 015°08'1 0.9
2016-Jul-24 04:16N 35°39' E 015°07'1 0.9
2016-Jul-24 03:31N 35°40' E 015°06'1 0.9
2016-Jul-24 02:33N 35°40' E 015°05'1 0.7
2016-Jul-24 01:33N 35°39' E 015°04'1 0.6
2016-Jul-24 00:33N 35°39' E 015°04'1 0.6
2016-Jul-23 23:32N 35°39' E 015°03'0 0.5
2016-Jul-23 22:34N 35°38' E 015°03'0 0.4
2016-Jul-23 21:33N 35°38' E 015°03'0 0.4
2016-Jul-23 20:34N 35°38' E 015°03'0 0.4
2016-Jul-23 19:33N 35°37' E 015°03'0 0.4
2016-Jul-23 18:34N 35°37' E 015°04'0 0.4
2016-Jul-23 17:33N 35°37' E 015°04'0 0.4
2016-Jul-23 16:26N 35°37' E 015°04'1 0.4
2016-Jul-23 14:32N 35°38' E 015°05'1 0.6
2016-Jul-23 13:18N 35°39' E 015°05'1 0.7
2016-Jul-23 12:28N 35°39' E 015°05'1 0.7
2016-Jul-23 11:33N 35°40' E 015°04'1 0.8
2016-Jul-23 10:30N 35°40' E 015°04'1 0.9
2016-Jul-23 09:33N 35°41' E 015°03'1 0.8
2016-Jul-23 08:33N 35°41' E 015°02'1 0.8
2016-Jul-23 07:33N 35°41' E 015°01'1 0.9
2016-Jul-23 06:33N 35°41' E 014°60'2 0.8
2016-Jul-23 04:34N 35°40' E 014°58'1 0.6
2016-Jul-23 03:33N 35°40' E 014°58'0 0.4
2016-Jul-23 02:33N 35°39' E 014°57'0 0.4
2016-Jul-23 01:33N 35°39' E 014°57'0 0.4
2016-Jul-23 00:33N 35°39' E 014°57'0 0.3
2016-Jul-22 23:34N 35°38' E 014°57'1 0.3
2016-Jul-22 20:27N 35°38' E 014°58'0 0.3
2016-Jul-22 19:33N 35°38' E 014°58'0 0.3
2016-Jul-22 18:34N 35°38' E 014°58'0 0.4
2016-Jul-22 17:34N 35°39' E 014°58'0 0.4
2016-Jul-22 16:33N 35°39' E 014°58'1 0.5
2016-Jul-22 15:34N 35°40' E 014°57'1 0.5
2016-Jul-22 14:33N 35°40' E 014°57'1 0.6
2016-Jul-22 13:28N 35°40' E 014°56'1 0.6
2016-Jul-22 12:33N 35°41' E 014°56'1 0.5
2016-Jul-22 11:33N 35°41' E 014°55'4 3.9
2016-Jul-22 10:33N 35°37' E 014°53'1211.6
2016-Jul-22 09:34N 35°33' E 014°39'1312.2
2016-Jul-22 08:31N 35°32' E 014°24'1412.1
2016-Jul-22 07:21N 35°40' E 014°10'2111.9
2016-Jul-22 05:33N 35°54' E 013°50'1211.6
2016-Jul-22 04:34N 36°01' E 013°38'1111.3
2016-Jul-22 03:33N 36°08' E 013°28'1111.5
2016-Jul-22 02:34N 36°16' E 013°17'1212.2
2016-Jul-22 01:33N 36°23' E 013°05'1312.6
2016-Jul-22 00:33N 36°31' E 012°53'3912.2
2016-Jul-21 21:22N 36°53' E 012°12'2111.8
2016-Jul-21 19:33N 37°04' E 011°50'1111.3
2016-Jul-21 18:33N 37°10' E 011°37'2411.5
2016-Jul-21 16:31N 37°21' E 011°11'1212.3
2016-Jul-21 15:31N 37°27' E 010°58'1212.1
2016-Jul-21 14:33N 37°33' E 010°45'1212.3
2016-Jul-21 13:32N 37°43' E 010°35'1212.1
2016-Jul-21 12:33N 37°52' E 010°25'1211.9
2016-Jul-21 11:33N 38°01' E 010°15'1212.1
2016-Jul-21 10:33N 38°10' E 010°06'1212.0
2016-Jul-21 09:33N 38°19' E 009°56'1212.0
2016-Jul-21 08:34N 38°28' E 009°46'1211.7
2016-Jul-21 07:33N 38°37' E 009°37'1211.8
2016-Jul-21 06:33N 38°46' E 009°27'1211.6
2016-Jul-21 05:32N 38°55' E 009°17'1211.7
2016-Jul-21 04:32N 39°04' E 009°08'4 3.5
2016-Jul-21 03:32N 39°05' E 009°03'0 0.0
2016-Jul-21 02:32N 39°05' E 009°03'0 0.0
2016-Jul-21 01:32N 39°05' E 009°03'0 0.0
2016-Jul-21 00:32N 39°05' E 009°03'0 0.0
2016-Jul-20 23:32N 39°05' E 009°03'0 0.0
2016-Jul-20 22:32N 39°05' E 009°03'0 0.0
2016-Jul-20 21:32N 39°05' E 009°03'0 0.0
2016-Jul-20 20:32N 39°05' E 009°03'0 0.0
2016-Jul-20 19:32N 39°05' E 009°03'0 0.0
2016-Jul-20 18:32N 39°05' E 009°03'0 0.0
2016-Jul-20 17:32N 39°05' E 009°03'0 0.0
2016-Jul-20 16:32N 39°05' E 009°03'0 0.0
2016-Jul-20 15:32N 39°05' E 009°03'0 0.0
2016-Jul-20 14:32N 39°05' E 009°03'0 0.0
2016-Jul-20 13:26N 39°05' E 009°03'0 0.0
2016-Jul-20 12:32N 39°05' E 009°03'0 0.0
2016-Jul-20 11:32N 39°05' E 009°03'0 0.0
2016-Jul-20 10:32N 39°05' E 009°03'0 0.0
2016-Jul-20 09:32N 39°05' E 009°03'0 0.0
2016-Jul-20 08:32N 39°05' E 009°03'0 0.0
2016-Jul-20 07:32N 39°05' E 009°03'0 0.0
2016-Jul-20 06:32N 39°05' E 009°03'0 0.0
2016-Jul-20 05:32N 39°05' E 009°03'0 0.0
2016-Jul-20 04:32N 39°05' E 009°03'0 0.0
2016-Jul-20 03:32N 39°05' E 009°03'0 0.0
2016-Jul-20 02:32N 39°05' E 009°03'0 0.0
2016-Jul-20 01:32N 39°05' E 009°03'0 0.0
2016-Jul-20 00:32N 39°05' E 009°03'0 0.0
2016-Jul-19 23:32N 39°05' E 009°03'0 0.0
2016-Jul-19 22:32N 39°05' E 009°03'0 0.0
2016-Jul-19 21:29N 39°05' E 009°03'0 0.0
2016-Jul-19 20:32N 39°05' E 009°03'0 0.0
2016-Jul-19 19:32N 39°05' E 009°03'0 0.0
2016-Jul-19 18:32N 39°05' E 009°03'0 0.0
2016-Jul-19 17:32N 39°05' E 009°03'0 0.0
2016-Jul-19 16:32N 39°05' E 009°03'0 0.0
2016-Jul-19 15:32N 39°05' E 009°03'0 0.0
2016-Jul-19 14:32N 39°05' E 009°03'0 0.0
2016-Jul-19 13:32N 39°05' E 009°03'0 0.0
2016-Jul-19 12:32N 39°05' E 009°03'0 0.0
2016-Jul-19 11:32N 39°05' E 009°03'0 0.0
2016-Jul-19 10:32N 39°05' E 009°03'0 0.0
2016-Jul-19 09:32N 39°05' E 009°03'0 0.0
2016-Jul-19 08:33N 39°05' E 009°03'0 0.3
2016-Jul-19 07:33N 39°05' E 009°04'8 2.8
2016-Jul-19 04:33N 38°60' E 009°12'6 5.6
2016-Jul-19 03:33N 38°55' E 009°17'5 4.8
2016-Jul-19 02:33N 38°52' E 009°21'5 4.9
2016-Jul-19 01:33N 38°48' E 009°25'7 6.5
2016-Jul-19 00:30N 38°43' E 009°31'6 6.4
2016-Jul-18 23:33N 38°39' E 009°36'7 7.2
2016-Jul-18 22:32N 38°33' E 009°42'7 7.4
2016-Jul-18 21:32N 38°28' E 009°48'8 8.2
2016-Jul-18 20:33N 38°22' E 009°56'1010.1
2016-Jul-18 19:33N 38°14' E 010°04'9 8.8
2016-Jul-18 18:33N 38°08' E 010°12'1110.8
2016-Jul-18 17:31N 37°59' E 010°21'1411.5
2016-Jul-18 16:20N 37°49' E 010°33'911.7
2016-Jul-18 15:34N 37°43' E 010°40'1111.4
2016-Jul-18 14:33N 37°37' E 010°53'6711.1
2016-Jul-18 08:33N 37°02' E 012°04'9010.9
2016-Jul-18 00:20N 36°34' E 013°51'2010.6
2016-Jul-17 22:25N 36°28' E 014°15'910.7
2016-Jul-17 21:33N 36°25' E 014°26'44310.3
2016-Jul-16 02:31N 36°55' E 023°36'1111.1
2016-Jul-16 01:33N 37°04' E 023°43'1111.1
2016-Jul-16 00:33N 37°13' E 023°50'1111.2
2016-Jul-15 23:33N 37°23' E 023°58'1510.7
2016-Jul-15 22:07N 37°36' E 024°08'710.6
2016-Jul-15 21:28N 37°42' E 024°12'910.4
2016-Jul-15 20:34N 37°48' E 024°21'1110.6
2016-Jul-15 19:34N 37°53' E 024°33'13811.1
2016-Jul-15 07:08N 39°57' E 025°51'  
Track history (hours):
 
Tides and Currents Weather Stations Pressure Air Temp Water Temp Dewpoint Dewpoint Depression Visibility Wind Speed Wind Dir Waves Ship Positions

Olib

Last reported at 2016-Jul-24 19:32 UTC. Time now 2016-Jul-24 20:31 UTC.
Position N 35°34' E 015°13'.

Length 247 m; draft 8.3 m.

Type: Ship. MMSI: 238252000.

Date/timePositionNaut miles runAvg speedWind from/ knotsBaromVisibWave heightAir tempDewpointWater temp
2016-Jul-24 19:32N 35°34' E 015°13'0 0.4
2016-Jul-24 18:33N 35°35' E 015°13'0 0.5
2016-Jul-24 17:33N 35°35' E 015°13'1 0.5
2016-Jul-24 15:33N 35°36' E 015°12'1 0.5
2016-Jul-24 14:17N 35°37' E 015°12'0 0.4
2016-Jul-24 13:34N 35°37' E 015°11'0 0.2
2016-Jul-24 12:34N 35°37' E 015°11'0 0.2
2016-Jul-24 11:18N 35°37' E 015°11'2 0.5
2016-Jul-24 07:33N 35°38' E 015°10'1 0.6
2016-Jul-24 06:33N 35°39' E 015°09'1 0.8
2016-Jul-24 05:30N 35°39' E 015°08'1 0.9
2016-Jul-24 04:16N 35°39' E 015°07'1 0.9
2016-Jul-24 03:31N 35°40' E 015°06'1 0.9
2016-Jul-24 02:33N 35°40' E 015°05'1 0.7
2016-Jul-24 01:33N 35°39' E 015°04'1 0.6
2016-Jul-24 00:33N 35°39' E 015°04'1 0.6
2016-Jul-23 23:32N 35°39' E 015°03'0 0.5
2016-Jul-23 22:34N 35°38' E 015°03'0 0.4
2016-Jul-23 21:33N 35°38' E 015°03'0 0.4
2016-Jul-23 20:34N 35°38' E 015°03'0 0.4
2016-Jul-23 19:33N 35°37' E 015°03'0 0.4
2016-Jul-23 18:34N 35°37' E 015°04'0 0.4
2016-Jul-23 17:33N 35°37' E 015°04'0 0.4
2016-Jul-23 16:26N 35°37' E 015°04'1 0.4
2016-Jul-23 14:32N 35°38' E 015°05'1 0.6
2016-Jul-23 13:18N 35°39' E 015°05'1 0.7
2016-Jul-23 12:28N 35°39' E 015°05'1 0.7
2016-Jul-23 11:33N 35°40' E 015°04'1 0.8
2016-Jul-23 10:30N 35°40' E 015°04'1 0.9
2016-Jul-23 09:33N 35°41' E 015°03'1 0.8
2016-Jul-23 08:33N 35°41' E 015°02'1 0.8
2016-Jul-23 07:33N 35°41' E 015°01'1 0.9
2016-Jul-23 06:33N 35°41' E 014°60'2 0.8
2016-Jul-23 04:34N 35°40' E 014°58'1 0.6
2016-Jul-23 03:33N 35°40' E 014°58'0 0.4
2016-Jul-23 02:33N 35°39' E 014°57'0 0.4
2016-Jul-23 01:33N 35°39' E 014°57'0 0.4
2016-Jul-23 00:33N 35°39' E 014°57'0 0.3
2016-Jul-22 23:34N 35°38' E 014°57'1 0.3
2016-Jul-22 20:27N 35°38' E 014°58'0 0.3
2016-Jul-22 19:33N 35°38' E 014°58'0 0.3
2016-Jul-22 18:34N 35°38' E 014°58'0 0.4
2016-Jul-22 17:34N 35°39' E 014°58'0 0.4
2016-Jul-22 16:33N 35°39' E 014°58'1 0.5
2016-Jul-22 15:34N 35°40' E 014°57'1 0.5
2016-Jul-22 14:33N 35°40' E 014°57'1 0.6
2016-Jul-22 13:28N 35°40' E 014°56'1 0.6
2016-Jul-22 12:33N 35°41' E 014°56'1 0.5
2016-Jul-22 11:33N 35°41' E 014°55'4 3.9
2016-Jul-22 10:33N 35°37' E 014°53'1211.6
2016-Jul-22 09:34N 35°33' E 014°39'1312.2
2016-Jul-22 08:31N 35°32' E 014°24'1412.1
2016-Jul-22 07:21N 35°40' E 014°10'2111.9
2016-Jul-22 05:33N 35°54' E 013°50'1211.6
2016-Jul-22 04:34N 36°01' E 013°38'1111.3
2016-Jul-22 03:33N 36°08' E 013°28'1111.5
2016-Jul-22 02:34N 36°16' E 013°17'1212.2
2016-Jul-22 01:33N 36°23' E 013°05'1312.6
2016-Jul-22 00:33N 36°31' E 012°53'3912.2
2016-Jul-21 21:22N 36°53' E 012°12'2111.8
2016-Jul-21 19:33N 37°04' E 011°50'1111.3
2016-Jul-21 18:33N 37°10' E 011°37'2411.5
2016-Jul-21 16:31N 37°21' E 011°11'1212.3
2016-Jul-21 15:31N 37°27' E 010°58'1212.1
2016-Jul-21 14:33N 37°33' E 010°45'1212.3
2016-Jul-21 13:32N 37°43' E 010°35'1212.1
2016-Jul-21 12:33N 37°52' E 010°25'1211.9
2016-Jul-21 11:33N 38°01' E 010°15'1212.1
2016-Jul-21 10:33N 38°10' E 010°06'1212.0
2016-Jul-21 09:33N 38°19' E 009°56'1212.0
2016-Jul-21 08:34N 38°28' E 009°46'1211.7
2016-Jul-21 07:33N 38°37' E 009°37'1211.8
2016-Jul-21 06:33N 38°46' E 009°27'1211.6
2016-Jul-21 05:32N 38°55' E 009°17'1211.7
2016-Jul-21 04:32N 39°04' E 009°08'4 3.5
2016-Jul-21 03:32N 39°05' E 009°03'0 0.0
2016-Jul-21 02:32N 39°05' E 009°03'0 0.0
2016-Jul-21 01:32N 39°05' E 009°03'0 0.0
2016-Jul-21 00:32N 39°05' E 009°03'0 0.0
2016-Jul-20 23:32N 39°05' E 009°03'0 0.0
2016-Jul-20 22:32N 39°05' E 009°03'0 0.0
2016-Jul-20 21:32N 39°05' E 009°03'0 0.0
2016-Jul-20 20:32N 39°05' E 009°03'0 0.0
2016-Jul-20 19:32N 39°05' E 009°03'0 0.0
2016-Jul-20 18:32N 39°05' E 009°03'0 0.0
2016-Jul-20 17:32N 39°05' E 009°03'0 0.0
2016-Jul-20 16:32N 39°05' E 009°03'0 0.0
2016-Jul-20 15:32N 39°05' E 009°03'0 0.0
2016-Jul-20 14:32N 39°05' E 009°03'0 0.0
2016-Jul-20 13:26N 39°05' E 009°03'0 0.0
2016-Jul-20 12:32N 39°05' E 009°03'0 0.0
2016-Jul-20 11:32N 39°05' E 009°03'0 0.0
2016-Jul-20 10:32N 39°05' E 009°03'0 0.0
2016-Jul-20 09:32N 39°05' E 009°03'0 0.0
2016-Jul-20 08:32N 39°05' E 009°03'0 0.0
2016-Jul-20 07:32N 39°05' E 009°03'0 0.0
2016-Jul-20 06:32N 39°05' E 009°03'0 0.0
2016-Jul-20 05:32N 39°05' E 009°03'0 0.0
2016-Jul-20 04:32N 39°05' E 009°03'0 0.0
2016-Jul-20 03:32N 39°05' E 009°03'0 0.0
2016-Jul-20 02:32N 39°05' E 009°03'0 0.0
2016-Jul-20 01:32N 39°05' E 009°03'0 0.0
2016-Jul-20 00:32N 39°05' E 009°03'0 0.0
2016-Jul-19 23:32N 39°05' E 009°03'0 0.0
2016-Jul-19 22:32N 39°05' E 009°03'0 0.0
2016-Jul-19 21:29N 39°05' E 009°03'0 0.0
2016-Jul-19 20:32N 39°05' E 009°03'0 0.0
2016-Jul-19 19:32N 39°05' E 009°03'0 0.0
2016-Jul-19 18:32N 39°05' E 009°03'0 0.0
2016-Jul-19 17:32N 39°05' E 009°03'0 0.0
2016-Jul-19 16:32N 39°05' E 009°03'0 0.0
2016-Jul-19 15:32N 39°05' E 009°03'0 0.0
2016-Jul-19 14:32N 39°05' E 009°03'0 0.0
2016-Jul-19 13:32N 39°05' E 009°03'0 0.0
2016-Jul-19 12:32N 39°05' E 009°03'0 0.0
2016-Jul-19 11:32N 39°05' E 009°03'0 0.0
2016-Jul-19 10:32N 39°05' E 009°03'0 0.0
2016-Jul-19 09:32N 39°05' E 009°03'0 0.0
2016-Jul-19 08:33N 39°05' E 009°03'0 0.3
2016-Jul-19 07:33N 39°05' E 009°04'8 2.8
2016-Jul-19 04:33N 38°60' E 009°12'6 5.6
2016-Jul-19 03:33N 38°55' E 009°17'5 4.8
2016-Jul-19 02:33N 38°52' E 009°21'5 4.9
2016-Jul-19 01:33N 38°48' E 009°25'7 6.5
2016-Jul-19 00:30N 38°43' E 009°31'6 6.4
2016-Jul-18 23:33N 38°39' E 009°36'7 7.2
2016-Jul-18 22:32N 38°33' E 009°42'7 7.4
2016-Jul-18 21:32N 38°28' E 009°48'8 8.2
2016-Jul-18 20:33N 38°22' E 009°56'1010.1
2016-Jul-18 19:33N 38°14' E 010°04'9 8.8
2016-Jul-18 18:33N 38°08' E 010°12'1110.8
2016-Jul-18 17:31N 37°59' E 010°21'1411.5
2016-Jul-18 16:20N 37°49' E 010°33'911.7
2016-Jul-18 15:34N 37°43' E 010°40'1111.4
2016-Jul-18 14:33N 37°37' E 010°53'6711.1
2016-Jul-18 08:33N 37°02' E 012°04'9010.9
2016-Jul-18 00:20N 36°34' E 013°51'2010.6
2016-Jul-17 22:25N 36°28' E 014°15'910.7
2016-Jul-17 21:33N 36°25' E 014°26'44310.3
2016-Jul-16 02:31N 36°55' E 023°36'1111.1
2016-Jul-16 01:33N 37°04' E 023°43'1111.1
2016-Jul-16 00:33N 37°13' E 023°50'1111.2
2016-Jul-15 23:33N 37°23' E 023°58'1510.7
2016-Jul-15 22:07N 37°36' E 024°08'710.6
2016-Jul-15 21:28N 37°42' E 024°12'910.4
2016-Jul-15 20:34N 37°48' E 024°21'1110.6
2016-Jul-15 19:34N 37°53' E 024°33'13811.1
2016-Jul-15 07:08N 39°57' E 025°51'  

Dump ship's entire track history